Detalii statie SADELLI PRODCOM [00001D03]

Toti senzorii

Date Temperatura solului [C]Precipitatii [mm]Voltaj baterie [mV]Leaf Wetness [Min]HC Air temperature [C]HC Relative humidity [%]Punctul de roua [C]
medieminmaxsumaultimatimpmedieminmaxmediemediemin
2018-06-20 10:00:00 22.9 22.5 23.5 0 7196 26.93 25.74 29.05 0 0 0
2018-06-20 11:00:00 24 23.6 24.6 0 7186 30.42 29.14 31.41 0 0 0
2018-06-20 12:00:00 25.1 24.6 25.5 0 7186 30.71 29.75 32.69 0 0 0
2018-06-20 13:00:00 25.8 25.6 26.1 0 7186 31.22 30.32 32.71 0 0 0
2018-06-20 14:00:00 26.3 26.1 26.6 0 7176 33.2 29.99 35.59 0 0 0
2018-06-20 15:00:00 26.8 26.7 26.9 0 7186 31.81 30.1 33.85 0 0 0
2018-06-20 16:00:00 26.6 26.5 26.8 0 7176 30.96 29.92 32.98 0 0 0
2018-06-20 17:00:00 26.5 26.5 26.7 0 7176 31.97 31.17 33.46 0 0 0
2018-06-20 18:00:00 26.3 26.1 26.6 0 7070 30.55 30.38 30.74 0 0 0
2018-06-20 19:00:00 26 25.8 26.2 0 6992 30.16 29.66 31.53 0 0 0
2018-06-20 20:00:00 25.5 25.3 25.9 0 6894 28.65 27.3 29.72 0 0 0
2018-06-20 21:00:00 24.9 24.7 25.2 0 6766 25.72 25.08 26.91 0 0 0
2018-06-20 22:00:00 24.4 24.2 24.8 0 6748 24.3 23.01 25.43 0 0 0
2018-06-20 23:00:00 24 23.8 24.2 0 6748 21.95 21.66 22.68 0 0 0
2018-06-21 00:00:00 23.6 23.4 24 0 6728 21.19 20.75 21.84 0 0 0
2018-06-21 01:00:00 23.2 23 23.5 0 6728 20.8 20.67 20.89 0 0 0
2018-06-21 02:00:00 22.9 22.7 23.1 0 6728 21.24 21.1 21.5 0 0 0
2018-06-21 03:00:00 22.6 22.3 22.8 0 6718 21.11 20.55 21.43 0 0 0
2018-06-21 04:00:00 22.2 22.1 22.5 0 6708 20.67 20.52 20.86 0 0 0
2018-06-21 05:00:00 21.9 21.8 22.2 0 6708 19.59 19.07 20.44 0 0 0
2018-06-21 06:00:00 21.8 21.7 21.9 0 6766 19.66 19.09 20.7 0 0 0
2018-06-21 07:00:00 21.8 21.7 21.9 0 6884 22.19 20.88 23.55 0 0 0
2018-06-21 08:00:00 22 21.8 22.3 0 6972 24.87 23.63 26.96 0 0 0
2018-06-21 09:00:00 22.6 22.2 23 0 7098 26.87 26.21 27.72 0 0 0
2018-06-21 10:00:00 23.4 23.1 23.9 0 7196 28.1 27.25 29.11 0 0 0
2018-06-21 11:00:00 24.3 24 24.8 0 7176 30.14 28.36 31.13 0 0 0
2018-06-21 12:00:00 25.3 24.9 25.7 0 7186 31.06 29.95 31.74 0 0 0
2018-06-21 13:00:00 25.8 25.6 26 0 7176 31.61 30.59 32.98 0 0 0
2018-06-21 14:00:00 26.3 26 26.5 0 7186 31.86 30.89 33.3 0 0 0
2018-06-21 15:00:00 26.2 26.1 26.4 0 7000 31.54 30.96 32.39 0.8 0
2018-06-21 16:00:00 26 25.7 26.4 0 7176 29.83 27.95 30.83 0.31 0
2018-06-21 17:00:00 25.5 25.3 25.8 0 7176 27.01 26.49 27.82 0 0 0
2018-06-21 18:00:00 25 24.8 25.3 0 7010 25.89 25.34 26.46 0 0 0
2018-06-21 19:00:00 24.7 24.6 25 0 6992 25.12 24.95 25.4 0 0 0
2018-06-21 20:00:00 24.4 24.2 24.6 0 6816 24.89 24.48 25.19 0 0 0
2018-06-21 21:00:00 24 23.8 24.4 0 6748 23.97 23.5 24.46 0.12 0
2018-06-21 22:00:00 23.6 23.4 24 0 6748 23.3 23.02 23.46 4.58 0
2018-06-21 23:00:00 23.3 23.2 23.5 0 6748 22.59 22.08 22.87 3.22 0
2018-06-22 00:00:00 22.9 22.7 23.2 0 6738 21.52 21.15 21.97 0 0 0
2018-06-22 01:00:00 22.6 22.5 22.8 0 6728 21.48 21.05 22.12 0 0 0
2018-06-22 02:00:00 22.3 22.2 22.5 0 6718 22.56 22.18 22.91 0 0 0
2018-06-22 03:00:00 22.1 22.1 22.3 0 6718 22.71 22.31 22.97 0 0 0
2018-06-22 04:00:00 22 21.9 22.2 0 6708 22.39 22.23 22.56 0 0 0
2018-06-22 05:00:00 21.8 21.8 22 0 6708 22.23 21.74 22.54 0 0 0
2018-06-22 06:00:00 21.7 21.7 21.9 0 6708 21.37 20.98 22.01 0 0 0
2018-06-22 07:00:00 21.6 21.4 21.8 0 6728 19.3 18.16 20.95 0 0 0
2018-06-22 08:00:00 21.2 21.1 21.4 1.6 6748 17.49 16.17 18.83 1.07 0
2018-06-22 09:00:00 20.8 20.8 21 0.8 6854 16.21 15.91 16.65 0 0 0